Time;durP1;ratioP1;P1;durP2;ratioP2;P2;SDS_P1;SDS_P2;PMS_P1;PMS_P2;Temp;Humidity;BMP_temperature;BMP_pressure;BME280_temperature;BME280_humidity;BME280_pressure;Samples;Min_cycle;Max_cycle;Signal;HPM_P1;HPM_P2
2022/12/16 00:01:07;;;;;;;10.52;9.10;;;15.30;47.10;;;;;;5054257;28;20218;-65
2022/12/16 00:03:34;;;;;;;11.35;10.13;;;15.30;47.10;;;;;;5054621;28;20222;-65
2022/12/16 00:06:03;;;;;;;11.52;10.32;;;15.30;47.10;;;;;;5054252;28;20569;-65
2022/12/16 00:08:33;;;;;;;12.05;10.10;;;15.30;47.20;;;;;;5054189;28;20653;-65
2022/12/16 00:11:00;;;;;;;12.38;9.95;;;15.30;47.10;;;;;;5054192;28;20180;-65
2022/12/16 00:13:28;;;;;;;11.38;9.23;;;15.20;47.10;;;;;;5053761;28;20680;-65
2022/12/16 00:15:55;;;;;;;11.95;9.82;;;15.20;47.20;;;;;;5054223;28;20560;-65
2022/12/16 00:18:23;;;;;;;12.93;10.52;;;15.20;47.20;;;;;;5054065;28;20223;-65
2022/12/16 00:20:51;;;;;;;12.52;10.02;;;15.20;47.20;;;;;;5053853;28;20658;-65
2022/12/16 00:23:18;;;;;;;13.40;10.70;;;15.10;47.20;;;;;;5053983;28;20224;-65
2022/12/16 00:25:47;;;;;;;11.57;9.57;;;15.10;47.70;;;;;;5054077;28;20487;-65
2022/12/16 00:28:14;;;;;;;11.05;9.85;;;15.10;47.10;;;;;;5053719;28;20259;-65
2022/12/16 00:30:42;;;;;;;11.63;10.20;;;15.10;47.20;;;;;;5053793;28;20200;-65
2022/12/16 00:33:09;;;;;;;11.88;9.85;;;15.10;47.20;;;;;;5055362;28;20184;-65
2022/12/16 00:35:36;;;;;;;11.73;9.73;;;15.10;47.50;;;;;;5053760;28;20610;-65
2022/12/16 00:38:03;;;;;;;10.98;9.02;;;15.00;47.30;;;;;;5053623;28;20603;-65
2022/12/16 00:40:30;;;;;;;10.27;9.05;;;15.00;47.40;;;;;;5053706;28;20216;-65
2022/12/16 00:42:58;;;;;;;11.45;9.90;;;15.00;47.20;;;;;;5053666;28;20195;-65
2022/12/16 00:45:26;;;;;;;9.88;8.65;;;15.00;47.30;;;;;;5055016;28;20215;-64
2022/12/16 00:47:53;;;;;;;11.40;9.32;;;14.90;47.50;;;;;;5055032;28;20208;-64
2022/12/16 00:50:21;;;;;;;11.07;9.43;;;14.90;47.30;;;;;;5053511;28;20579;-65
2022/12/16 00:52:47;;;;;;;10.65;8.98;;;14.90;47.20;;;;;;5055023;28;20191;-65
2022/12/16 00:55:14;;;;;;;10.45;9.20;;;14.90;47.30;;;;;;5053292;28;20245;-65
2022/12/16 00:57:41;;;;;;;11.05;9.18;;;14.90;47.40;;;;;;5053410;28;20231;-65
2022/12/16 01:00:12;;;;;;;10.90;9.43;;;14.90;47.90;;;;;;5053316;28;20199;-65
2022/12/16 01:02:40;;;;;;;10.13;8.70;;;14.80;47.50;;;;;;5053366;28;20215;-65
2022/12/16 01:05:08;;;;;;;10.65;9.40;;;14.80;47.30;;;;;;5053237;28;20653;-65
2022/12/16 01:07:35;;;;;;;11.18;9.55;;;14.80;47.40;;;;;;5053028;28;20219;-66
2022/12/16 01:10:02;;;;;;;10.95;9.85;;;14.80;47.50;;;;;;5054545;28;20191;-65
2022/12/16 01:12:29;;;;;;;11.85;9.60;;;14.80;47.40;;;;;;5053173;28;20205;-65
2022/12/16 01:14:57;;;;;;;9.95;8.90;;;14.80;47.40;;;;;;5054358;28;20194;-63
2022/12/16 01:17:25;;;;;;;11.63;9.82;;;14.80;47.40;;;;;;5053003;28;20199;-63
2022/12/16 01:19:53;;;;;;;10.63;9.35;;;14.70;47.40;;;;;;5053039;28;20195;-63
2022/12/16 01:22:20;;;;;;;11.35;9.38;;;14.70;47.30;;;;;;5052913;28;20243;-63
2022/12/16 01:24:47;;;;;;;10.65;9.55;;;14.70;47.40;;;;;;5052508;28;20257;-63
2022/12/16 01:27:14;;;;;;;11.95;10.02;;;14.70;47.40;;;;;;5053243;28;20197;-63
2022/12/16 01:29:42;;;;;;;9.93;8.88;;;14.60;47.40;;;;;;5056101;28;20199;-63
2022/12/16 01:32:09;;;;;;;11.88;10.45;;;14.70;47.50;;;;;;5053307;28;20289;-63
2022/12/16 01:34:38;;;;;;;11.15;9.27;;;14.60;47.40;;;;;;5052640;28;20203;-63
2022/12/16 01:37:05;;;;;;;11.30;9.73;;;14.60;47.50;;;;;;5052800;28;20195;-63
2022/12/16 01:39:32;;;;;;;11.80;10.00;;;14.60;47.50;;;;;;5052865;28;20199;-63
2022/12/16 01:41:58;;;;;;;10.48;9.30;;;14.60;47.40;;;;;;5052707;28;20215;-63
2022/12/16 01:44:26;;;;;;;9.32;8.30;;;14.50;47.50;;;;;;5053879;28;20199;-64
2022/12/16 01:46:55;;;;;;;10.88;9.40;;;14.50;47.60;;;;;;5052551;28;20226;-64
2022/12/16 01:49:24;;;;;;;10.82;9.35;;;14.50;47.50;;;;;;5054037;28;20629;-64
2022/12/16 01:51:52;;;;;;;11.98;9.55;;;14.50;47.70;;;;;;5052680;28;20195;-64
2022/12/16 01:54:21;;;;;;;11.30;9.23;;;14.50;47.50;;;;;;5053831;28;20195;-64
2022/12/16 01:56:49;;;;;;;10.40;8.85;;;14.50;47.40;;;;;;5052574;28;20294;-64
2022/12/16 01:59:16;;;;;;;12.00;10.38;;;14.50;47.60;;;;;;5052678;28;20211;-64
2022/12/16 02:01:44;;;;;;;10.52;9.32;;;14.50;47.60;;;;;;5052475;28;20312;-63
2022/12/16 02:04:11;;;;;;;10.70;9.07;;;14.50;47.70;;;;;;5052549;28;20207;-63
2022/12/16 02:06:38;;;;;;;10.90;9.07;;;14.50;47.70;;;;;;5052781;28;20717;-63
2022/12/16 02:09:08;;;;;;;11.60;9.98;;;14.40;47.50;;;;;;5052831;28;20704;-63
2022/12/16 02:11:49;;;;;;;10.27;9.27;;;14.40;47.60;;;;;;5053054;28;20241;-63
2022/12/16 02:14:28;;;;;;;10.52;9.40;;;14.40;47.60;;;;;;5052794;28;20214;-63
2022/12/16 02:16:57;;;;;;;10.20;9.20;;;14.40;47.50;;;;;;5054757;28;20175;-64
2022/12/16 02:19:46;;;;;;;10.90;9.73;;;14.40;47.70;;;;;;5052952;28;20265;-64
2022/12/16 02:22:18;;;;;;;11.35;9.70;;;14.30;47.50;;;;;;5053017;28;20238;-63
2022/12/16 02:25:03;;;;;;;10.43;9.30;;;14.40;47.50;;;;;;5054857;28;20175;-64
2022/12/16 02:27:49;;;;;;;10.38;9.13;;;14.40;47.60;;;;;;5053490;28;20219;-64
2022/12/16 02:30:29;;;;;;;11.18;9.52;;;14.40;47.60;;;;;;5052880;28;20223;-64
2022/12/16 02:33:00;;;;;;;10.80;9.25;;;14.30;47.40;;;;;;5056311;28;20713;-64
2022/12/16 02:35:30;;;;;;;10.88;9.70;;;14.30;47.50;;;;;;5062457;28;20213;-64
2022/12/16 02:38:04;;;;;;;11.27;9.90;;;14.40;47.50;;;;;;5056508;28;20223;-64
2022/12/16 02:40:35;;;;;;;10.77;9.68;;;14.30;47.40;;;;;;5057569;28;20175;-63
2022/12/16 02:43:04;;;;;;;10.43;9.10;;;14.30;47.40;;;;;;5056368;28;20217;-64
2022/12/16 02:45:33;;;;;;;10.45;9.30;;;14.30;47.50;;;;;;5057625;28;20187;-63
2022/12/16 02:48:01;;;;;;;10.18;9.15;;;14.30;47.40;;;;;;5056439;28;20219;-63
2022/12/16 02:50:30;;;;;;;11.02;9.60;;;14.20;47.40;;;;;;5056494;28;20673;-63
2022/12/16 02:52:57;;;;;;;11.05;9.85;;;14.20;47.50;;;;;;5055874;28;20227;-63
2022/12/16 02:55:28;;;;;;;10.95;9.10;;;14.20;47.40;;;;;;5057521;28;20672;-63
2022/12/16 02:58:10;;;;;;;10.10;8.98;;;14.20;47.40;;;;;;5055999;28;20225;-63
2022/12/16 03:00:43;;;;;;;10.88;9.18;;;14.20;47.50;;;;;;5055830;28;20192;-63
2022/12/16 03:03:12;;;;;;;11.25;8.85;;;14.20;47.50;;;;;;5055731;28;20688;-64
2022/12/16 03:05:42;;;;;;;10.13;9.07;;;14.20;47.60;;;;;;5057064;28;20183;-64
2022/12/16 03:08:12;;;;;;;10.77;9.18;;;14.20;47.50;;;;;;5056975;28;20219;-64
2022/12/16 03:10:43;;;;;;;9.40;8.45;;;14.20;47.60;;;;;;5055382;28;20188;-64
2022/12/16 03:13:10;;;;;;;10.50;8.73;;;14.10;47.50;;;;;;5055369;28;20196;-64
2022/12/16 03:15:37;;;;;;;11.02;9.68;;;14.10;47.60;;;;;;5055091;28;20203;-64
2022/12/16 03:18:06;;;;;;;9.85;8.77;;;14.10;47.60;;;;;;5055514;28;20219;-64
2022/12/16 03:20:35;;;;;;;10.00;8.90;;;14.10;47.50;;;;;;5055343;28;20199;-64
2022/12/16 03:23:03;;;;;;;10.98;9.02;;;14.10;47.50;;;;;;5055324;28;20665;-64
2022/12/16 03:25:32;;;;;;;8.77;7.88;;;14.10;47.60;;;;;;5056681;28;20682;-64
2022/12/16 03:28:02;;;;;;;9.85;8.85;;;14.10;47.60;;;;;;5055215;28;20227;-64
2022/12/16 03:30:32;;;;;;;10.05;8.75;;;14.10;47.60;;;;;;5055844;28;20546;-63
2022/12/16 03:33:01;;;;;;;10.65;8.80;;;14.10;47.70;;;;;;5055423;28;20210;-63
2022/12/16 03:35:32;;;;;;;9.23;8.23;;;14.10;47.60;;;;;;5054759;28;20245;-63
2022/12/16 03:37:59;;;;;;;10.07;8.82;;;14.00;47.70;;;;;;5055032;28;20219;-63
2022/12/16 03:40:27;;;;;;;10.57;9.30;;;14.00;47.50;;;;;;5054730;28;20206;-64
2022/12/16 03:42:54;;;;;;;9.70;8.70;;;14.10;47.90;;;;;;5054619;28;20285;-63
2022/12/16 03:45:23;;;;;;;10.18;9.13;;;14.00;47.60;;;;;;5054868;28;20282;-63
2022/12/16 03:47:51;;;;;;;9.85;8.85;;;14.00;47.50;;;;;;5053897;28;20610;-63
2022/12/16 03:50:19;;;;;;;11.07;9.35;;;14.00;47.60;;;;;;5054840;28;20677;-63
2022/12/16 03:52:47;;;;;;;9.80;8.80;;;14.00;47.60;;;;;;5056039;28;20191;-63
2022/12/16 03:55:15;;;;;;;9.48;8.48;;;14.00;47.70;;;;;;5054701;28;20199;-63
2022/12/16 03:57:42;;;;;;;9.70;8.65;;;14.00;47.70;;;;;;5054845;28;20705;-63
2022/12/16 04:00:10;;;;;;;9.95;8.93;;;14.00;47.50;;;;;;5054706;28;20206;-63
2022/12/16 04:02:40;;;;;;;9.90;8.27;;;14.00;47.50;;;;;;5054615;28;20216;-63
2022/12/16 04:05:08;;;;;;;10.77;8.88;;;14.00;47.50;;;;;;5054667;28;20638;-64
2022/12/16 04:07:34;;;;;;;9.60;8.60;;;13.90;47.50;;;;;;5054600;28;20567;-63
2022/12/16 04:10:03;;;;;;;8.95;7.95;;;13.90;47.50;;;;;;5055867;28;20188;-63
2022/12/16 04:29:20;;;;;;;11.07;9.65;;;13.90;47.00;;;;;;5054039;28;20588;-63
2022/12/16 04:31:47;;;;;;;10.48;9.27;;;14.00;47.10;;;;;;5054942;28;20248;-63
2022/12/16 04:34:25;;;;;;;11.02;9.75;;;13.90;47.00;;;;;;5054503;28;20200;-62
